sensor_id;sensor_type;location;lat;lon;timestamp;temperature;humidity
69393;SHT31;56582;44.624;20.378;2024-02-28T00:00:46;12.27;70.28
69393;SHT31;56582;44.624;20.378;2024-02-28T00:03:14;12.36;69.48
69393;SHT31;56582;44.624;20.378;2024-02-28T00:05:42;12.30;70.50
69393;SHT31;56582;44.624;20.378;2024-02-28T00:08:10;12.29;69.97
69393;SHT31;56582;44.624;20.378;2024-02-28T00:10:35;12.34;69.76
69393;SHT31;56582;44.624;20.378;2024-02-28T00:13:01;12.27;70.28
69393;SHT31;56582;44.624;20.378;2024-02-28T00:15:26;12.19;70.40
69393;SHT31;56582;44.624;20.378;2024-02-28T00:17:52;12.16;70.14
69393;SHT31;56582;44.624;20.378;2024-02-28T00:20:18;12.17;70.16
69393;SHT31;56582;44.624;20.378;2024-02-28T00:22:44;12.19;70.52
69393;SHT31;56582;44.624;20.378;2024-02-28T00:25:09;12.17;70.57
69393;SHT31;56582;44.624;20.378;2024-02-28T00:27:36;12.20;70.23
69393;SHT31;56582;44.624;20.378;2024-02-28T00:30:03;12.20;70.67
69393;SHT31;56582;44.624;20.378;2024-02-28T00:32:32;12.14;70.52
69393;SHT31;56582;44.624;20.378;2024-02-28T00:34:58;12.16;70.23
69393;SHT31;56582;44.624;20.378;2024-02-28T00:37:24;12.10;70.34
69393;SHT31;56582;44.624;20.378;2024-02-28T00:39:50;12.10;70.99
69393;SHT31;56582;44.624;20.378;2024-02-28T00:42:16;12.13;70.86
69393;SHT31;56582;44.624;20.378;2024-02-28T00:44:41;12.05;70.71
69393;SHT31;56582;44.624;20.378;2024-02-28T00:47:08;11.97;71.21
69393;SHT31;56582;44.624;20.378;2024-02-28T00:49:34;11.96;71.63
69393;SHT31;56582;44.624;20.378;2024-02-28T00:52:00;11.96;71.83
69393;SHT31;56582;44.624;20.378;2024-02-28T00:54:26;11.92;71.66
69393;SHT31;56582;44.624;20.378;2024-02-28T00:56:52;12.00;71.45
69393;SHT31;56582;44.624;20.378;2024-02-28T00:59:17;12.05;71.48
69393;SHT31;56582;44.624;20.378;2024-02-28T01:01:42;12.05;72.09
69393;SHT31;56582;44.624;20.378;2024-02-28T01:04:08;12.03;71.42
69393;SHT31;56582;44.624;20.378;2024-02-28T01:06:34;12.07;70.75
69393;SHT31;56582;44.624;20.378;2024-02-28T01:09:02;12.00;71.15
69393;SHT31;56582;44.624;20.378;2024-02-28T01:11:28;11.90;71.84
69393;SHT31;56582;44.624;20.378;2024-02-28T01:13:54;11.92;71.70
69393;SHT31;56582;44.624;20.378;2024-02-28T01:16:22;11.99;71.38
69393;SHT31;56582;44.624;20.378;2024-02-28T01:18:51;11.96;71.22
69393;SHT31;56582;44.624;20.378;2024-02-28T01:21:16;11.90;71.92
69393;SHT31;56582;44.624;20.378;2024-02-28T01:23:42;11.83;71.93
69393;SHT31;56582;44.624;20.378;2024-02-28T01:26:08;11.87;71.75
69393;SHT31;56582;44.624;20.378;2024-02-28T01:28:34;11.90;71.59
69393;SHT31;56582;44.624;20.378;2024-02-28T01:30:59;11.87;71.71
69393;SHT31;56582;44.624;20.378;2024-02-28T01:33:25;11.92;71.46
69393;SHT31;56582;44.624;20.378;2024-02-28T01:35:51;11.92;72.18
69393;SHT31;56582;44.624;20.378;2024-02-28T01:38:16;11.82;71.92
69393;SHT31;56582;44.624;20.378;2024-02-28T01:40:46;11.81;71.82
69393;SHT31;56582;44.624;20.378;2024-02-28T01:43:12;11.79;71.82
69393;SHT31;56582;44.624;20.378;2024-02-28T01:45:41;11.76;71.90
69393;SHT31;56582;44.624;20.378;2024-02-28T01:48:09;11.82;71.67
69393;SHT31;56582;44.624;20.378;2024-02-28T01:50:35;11.78;71.79
69393;SHT31;56582;44.624;20.378;2024-02-28T01:53:03;11.87;71.68
69393;SHT31;56582;44.624;20.378;2024-02-28T01:55:30;11.72;71.54
69393;SHT31;56582;44.624;20.378;2024-02-28T01:57:56;11.71;72.16
69393;SHT31;56582;44.624;20.378;2024-02-28T02:00:25;11.66;72.14
69393;SHT31;56582;44.624;20.378;2024-02-28T02:02:54;11.59;72.41
69393;SHT31;56582;44.624;20.378;2024-02-28T02:05:28;11.62;72.20
69393;SHT31;56582;44.624;20.378;2024-02-28T02:07:54;11.74;72.34
69393;SHT31;56582;44.624;20.378;2024-02-28T02:10:20;11.68;72.33
69393;SHT31;56582;44.624;20.378;2024-02-28T02:12:46;11.71;71.78
69393;SHT31;56582;44.624;20.378;2024-02-28T02:15:12;11.78;71.84
69393;SHT31;56582;44.624;20.378;2024-02-28T02:17:37;11.66;72.36
69393;SHT31;56582;44.624;20.378;2024-02-28T02:20:03;11.74;71.99
69393;SHT31;56582;44.624;20.378;2024-02-28T02:22:37;11.69;72.14
69393;SHT31;56582;44.624;20.378;2024-02-28T02:25:06;11.76;72.04
69393;SHT31;56582;44.624;20.378;2024-02-28T02:27:31;11.76;71.65
69393;SHT31;56582;44.624;20.378;2024-02-28T02:29:57;11.83;71.78
69393;SHT31;56582;44.624;20.378;2024-02-28T02:32:23;11.83;71.73
69393;SHT31;56582;44.624;20.378;2024-02-28T02:34:49;11.78;72.03
69393;SHT31;56582;44.624;20.378;2024-02-28T02:37:14;11.79;71.62
69393;SHT31;56582;44.624;20.378;2024-02-28T02:39:40;11.79;71.73
69393;SHT31;56582;44.624;20.378;2024-02-28T02:42:05;11.76;71.75
69393;SHT31;56582;44.624;20.378;2024-02-28T02:44:31;11.71;71.90
69393;SHT31;56582;44.624;20.378;2024-02-28T02:46:56;11.61;72.18
69393;SHT31;56582;44.624;20.378;2024-02-28T02:49:22;11.57;72.54
69393;SHT31;56582;44.624;20.378;2024-02-28T02:51:48;11.51;72.95
69393;SHT31;56582;44.624;20.378;2024-02-28T02:54:13;11.46;72.70
69393;SHT31;56582;44.624;20.378;2024-02-28T02:56:42;11.54;74.10
69393;SHT31;56582;44.624;20.378;2024-02-28T02:59:10;11.54;72.87
69393;SHT31;56582;44.624;20.378;2024-02-28T03:01:37;11.52;72.64
69393;SHT31;56582;44.624;20.378;2024-02-28T03:04:03;11.48;72.99
69393;SHT31;56582;44.624;20.378;2024-02-28T03:06:29;11.45;73.00
69393;SHT31;56582;44.624;20.378;2024-02-28T03:08:54;11.55;72.48
69393;SHT31;56582;44.624;20.378;2024-02-28T03:11:20;11.51;72.92
69393;SHT31;56582;44.624;20.378;2024-02-28T03:13:49;11.45;72.91
69393;SHT31;56582;44.624;20.378;2024-02-28T03:16:15;11.50;72.96
69393;SHT31;56582;44.624;20.378;2024-02-28T03:18:40;11.45;73.08
69393;SHT31;56582;44.624;20.378;2024-02-28T03:21:06;11.39;73.28
69393;SHT31;56582;44.624;20.378;2024-02-28T03:23:32;11.37;73.54
69393;SHT31;56582;44.624;20.378;2024-02-28T03:25:58;11.35;73.44
69393;SHT31;56582;44.624;20.378;2024-02-28T03:28:23;11.34;73.47
69393;SHT31;56582;44.624;20.378;2024-02-28T03:30:49;11.24;73.98
69393;SHT31;56582;44.624;20.378;2024-02-28T03:33:14;11.23;73.89
69393;SHT31;56582;44.624;20.378;2024-02-28T03:35:40;11.28;73.53
69393;SHT31;56582;44.624;20.378;2024-02-28T03:38:05;11.18;73.92
69393;SHT31;56582;44.624;20.378;2024-02-28T03:40:31;11.24;73.66
69393;SHT31;56582;44.624;20.378;2024-02-28T03:42:56;11.25;73.61
69393;SHT31;56582;44.624;20.378;2024-02-28T03:45:22;11.14;73.79
69393;SHT31;56582;44.624;20.378;2024-02-28T03:47:48;11.13;74.04
69393;SHT31;56582;44.624;20.378;2024-02-28T03:50:14;11.13;74.20
69393;SHT31;56582;44.624;20.378;2024-02-28T03:52:40;11.21;74.02
69393;SHT31;56582;44.624;20.378;2024-02-28T03:55:05;11.18;73.89
69393;SHT31;56582;44.624;20.378;2024-02-28T03:57:31;11.13;73.87
69393;SHT31;56582;44.624;20.378;2024-02-28T03:59:56;11.11;74.04
69393;SHT31;56582;44.624;20.378;2024-02-28T04:02:22;11.08;74.11
69393;SHT31;56582;44.624;20.378;2024-02-28T04:04:47;11.13;74.22
69393;SHT31;56582;44.624;20.378;2024-02-28T04:07:13;11.07;74.20
69393;SHT31;56582;44.624;20.378;2024-02-28T04:09:38;11.08;74.29
69393;SHT31;56582;44.624;20.378;2024-02-28T04:12:04;11.07;74.55
69393;SHT31;56582;44.624;20.378;2024-02-28T04:14:30;11.16;74.26
69393;SHT31;56582;44.624;20.378;2024-02-28T04:16:55;11.11;74.36
69393;SHT31;56582;44.624;20.378;2024-02-28T04:19:21;11.08;74.42
69393;SHT31;56582;44.624;20.378;2024-02-28T04:21:46;10.99;74.74
69393;SHT31;56582;44.624;20.378;2024-02-28T04:24:12;10.97;74.76
69393;SHT31;56582;44.624;20.378;2024-02-28T04:26:38;10.93;74.96
69393;SHT31;56582;44.624;20.378;2024-02-28T04:29:03;10.92;75.21
69393;SHT31;56582;44.624;20.378;2024-02-28T04:31:31;10.90;75.13
69393;SHT31;56582;44.624;20.378;2024-02-28T04:33:57;10.93;74.89
69393;SHT31;56582;44.624;20.378;2024-02-28T04:36:23;10.95;74.88
69393;SHT31;56582;44.624;20.378;2024-02-28T04:38:48;10.93;75.11
69393;SHT31;56582;44.624;20.378;2024-02-28T04:41:14;10.84;75.26
69393;SHT31;56582;44.624;20.378;2024-02-28T04:43:40;10.76;75.55
69393;SHT31;56582;44.624;20.378;2024-02-28T04:46:05;10.79;75.53
69393;SHT31;56582;44.624;20.378;2024-02-28T04:48:31;10.86;75.37
69393;SHT31;56582;44.624;20.378;2024-02-28T04:50:56;10.80;75.69
69393;SHT31;56582;44.624;20.378;2024-02-28T04:53:22;10.75;75.85
69393;SHT31;56582;44.624;20.378;2024-02-28T04:55:48;10.77;76.01
69393;SHT31;56582;44.624;20.378;2024-02-28T04:58:13;10.70;76.11
69393;SHT31;56582;44.624;20.378;2024-02-28T05:00:39;10.62;76.43
69393;SHT31;56582;44.624;20.378;2024-02-28T05:03:05;10.58;76.42
69393;SHT31;56582;44.624;20.378;2024-02-28T05:05:30;10.60;76.57
69393;SHT31;56582;44.624;20.378;2024-02-28T05:07:56;10.53;76.85
69393;SHT31;56582;44.624;20.378;2024-02-28T05:10:21;10.55;76.53
69393;SHT31;56582;44.624;20.378;2024-02-28T05:12:47;10.59;76.64
69393;SHT31;56582;44.624;20.378;2024-02-28T05:15:12;10.50;76.77
69393;SHT31;56582;44.624;20.378;2024-02-28T05:17:38;10.45;76.71
69393;SHT31;56582;44.624;20.378;2024-02-28T05:20:05;10.41;77.23
69393;SHT31;56582;44.624;20.378;2024-02-28T05:22:30;10.41;77.15
69393;SHT31;56582;44.624;20.378;2024-02-28T05:24:56;10.45;76.87
69393;SHT31;56582;44.624;20.378;2024-02-28T05:27:21;10.50;76.78
69393;SHT31;56582;44.624;20.378;2024-02-28T05:29:47;10.34;77.26
69393;SHT31;56582;44.624;20.378;2024-02-28T05:32:13;10.37;77.17
69393;SHT31;56582;44.624;20.378;2024-02-28T05:34:39;10.42;77.08
69393;SHT31;56582;44.624;20.378;2024-02-28T05:37:04;10.35;77.55
69393;SHT31;56582;44.624;20.378;2024-02-28T05:39:30;10.32;77.12
69393;SHT31;56582;44.624;20.378;2024-02-28T05:41:56;10.38;77.14
69393;SHT31;56582;44.624;20.378;2024-02-28T05:44:22;10.34;77.35
69393;SHT31;56582;44.624;20.378;2024-02-28T05:46:49;10.38;77.08
69393;SHT31;56582;44.624;20.378;2024-02-28T05:49:15;10.35;77.36
69393;SHT31;56582;44.624;20.378;2024-02-28T05:51:40;10.48;77.12
69393;SHT31;56582;44.624;20.378;2024-02-28T05:54:06;10.58;77.15
69393;SHT31;56582;44.624;20.378;2024-02-28T05:56:31;10.59;77.08
69393;SHT31;56582;44.624;20.378;2024-02-28T05:58:57;10.68;76.50
69393;SHT31;56582;44.624;20.378;2024-02-28T06:01:22;10.69;76.68
69393;SHT31;56582;44.624;20.378;2024-02-28T06:03:48;10.89;80.60
69393;SHT31;56582;44.624;20.378;2024-02-28T06:06:14;11.01;76.42
69393;SHT31;56582;44.624;20.378;2024-02-28T06:08:40;10.96;76.27
69393;SHT31;56582;44.624;20.378;2024-02-28T06:11:06;11.10;76.88
69393;SHT31;56582;44.624;20.378;2024-02-28T06:13:31;11.08;76.57
69393;SHT31;56582;44.624;20.378;2024-02-28T06:15:57;11.14;75.96
69393;SHT31;56582;44.624;20.378;2024-02-28T06:18:24;11.38;76.10
69393;SHT31;56582;44.624;20.378;2024-02-28T06:20:53;11.44;75.76
69393;SHT31;56582;44.624;20.378;2024-02-28T06:23:19;11.51;74.91
69393;SHT31;56582;44.624;20.378;2024-02-28T06:25:45;11.50;75.16
69393;SHT31;56582;44.624;20.378;2024-02-28T06:28:10;11.62;77.97
69393;SHT31;56582;44.624;20.378;2024-02-28T06:30:36;11.74;74.38
69393;SHT31;56582;44.624;20.378;2024-02-28T06:33:01;11.86;74.17
69393;SHT31;56582;44.624;20.378;2024-02-28T06:35:27;11.86;73.89
69393;SHT31;56582;44.624;20.378;2024-02-28T06:37:53;12.05;74.03
69393;SHT31;56582;44.624;20.378;2024-02-28T06:40:19;12.10;74.26
69393;SHT31;56582;44.624;20.378;2024-02-28T06:42:45;12.29;73.08
69393;SHT31;56582;44.624;20.378;2024-02-28T06:45:11;12.40;73.63
69393;SHT31;56582;44.624;20.378;2024-02-28T06:47:36;12.53;72.82
69393;SHT31;56582;44.624;20.378;2024-02-28T06:50:03;12.55;72.11
69393;SHT31;56582;44.624;20.378;2024-02-28T06:52:29;12.54;71.36
69393;SHT31;56582;44.624;20.378;2024-02-28T06:54:55;12.58;72.16
69393;SHT31;56582;44.624;20.378;2024-02-28T06:57:21;12.50;71.70
69393;SHT31;56582;44.624;20.378;2024-02-28T06:59:46;12.37;72.01
69393;SHT31;56582;44.624;20.378;2024-02-28T07:02:12;12.41;72.14
69393;SHT31;56582;44.624;20.378;2024-02-28T07:04:41;12.60;72.03
69393;SHT31;56582;44.624;20.378;2024-02-28T07:07:07;12.65;73.00
69393;SHT31;56582;44.624;20.378;2024-02-28T07:09:32;12.75;71.08
69393;SHT31;56582;44.624;20.378;2024-02-28T07:11:59;12.88;71.85
69393;SHT31;56582;44.624;20.378;2024-02-28T07:14:24;13.05;71.12
69393;SHT31;56582;44.624;20.378;2024-02-28T07:16:50;13.24;70.72
69393;SHT31;56582;44.624;20.378;2024-02-28T07:19:19;13.40;70.22
69393;SHT31;56582;44.624;20.378;2024-02-28T07:21:45;13.42;70.63
69393;SHT31;56582;44.624;20.378;2024-02-28T07:24:11;13.30;70.11
69393;SHT31;56582;44.624;20.378;2024-02-28T07:26:36;13.20;70.47
69393;SHT31;56582;44.624;20.378;2024-02-28T07:29:02;13.08;70.72
69393;SHT31;56582;44.624;20.378;2024-02-28T07:31:28;12.99;70.67
69393;SHT31;56582;44.624;20.378;2024-02-28T07:33:53;12.96;70.68
69393;SHT31;56582;44.624;20.378;2024-02-28T07:36:20;12.88;71.17
69393;SHT31;56582;44.624;20.378;2024-02-28T07:38:45;12.89;71.22
69393;SHT31;56582;44.624;20.378;2024-02-28T07:41:11;12.99;71.30
69393;SHT31;56582;44.624;20.378;2024-02-28T07:43:37;13.05;71.27
69393;SHT31;56582;44.624;20.378;2024-02-28T07:46:07;13.06;71.63
69393;SHT31;56582;44.624;20.378;2024-02-28T07:48:34;13.13;71.46
69393;SHT31;56582;44.624;20.378;2024-02-28T07:50:59;13.22;69.92
69393;SHT31;56582;44.624;20.378;2024-02-28T07:53:25;13.20;70.68
69393;SHT31;56582;44.624;20.378;2024-02-28T07:55:50;13.29;70.61
69393;SHT31;56582;44.624;20.378;2024-02-28T07:58:18;13.32;70.59
69393;SHT31;56582;44.624;20.378;2024-02-28T08:00:44;13.27;70.82
69393;SHT31;56582;44.624;20.378;2024-02-28T08:03:10;13.27;71.08
69393;SHT31;56582;44.624;20.378;2024-02-28T08:05:35;13.27;71.10
69393;SHT31;56582;44.624;20.378;2024-02-28T08:08:07;13.30;70.61
69393;SHT31;56582;44.624;20.378;2024-02-28T08:10:33;13.35;71.06
69393;SHT31;56582;44.624;20.378;2024-02-28T08:13:01;13.38;70.29
69393;SHT31;56582;44.624;20.378;2024-02-28T08:15:27;13.33;70.41
69393;SHT31;56582;44.624;20.378;2024-02-28T08:17:52;13.40;71.87
69393;SHT31;56582;44.624;20.378;2024-02-28T08:20:19;13.44;70.61
69393;SHT31;56582;44.624;20.378;2024-02-28T08:22:45;13.53;70.91
69393;SHT31;56582;44.624;20.378;2024-02-28T08:25:11;13.53;69.32
69393;SHT31;56582;44.624;20.378;2024-02-28T08:27:37;13.53;69.84
69393;SHT31;56582;44.624;20.378;2024-02-28T08:30:04;13.67;69.45
69393;SHT31;56582;44.624;20.378;2024-02-28T08:32:31;13.75;69.33
69393;SHT31;56582;44.624;20.378;2024-02-28T08:34:56;13.71;69.92
69393;SHT31;56582;44.624;20.378;2024-02-28T08:37:23;13.82;69.60
69393;SHT31;56582;44.624;20.378;2024-02-28T08:39:49;13.73;69.14
69393;SHT31;56582;44.624;20.378;2024-02-28T08:42:14;13.74;69.56
69393;SHT31;56582;44.624;20.378;2024-02-28T08:44:40;13.80;69.49
69393;SHT31;56582;44.624;20.378;2024-02-28T08:47:05;13.81;70.04
69393;SHT31;56582;44.624;20.378;2024-02-28T08:49:34;13.80;70.22
69393;SHT31;56582;44.624;20.378;2024-02-28T08:52:00;13.80;69.86
69393;SHT31;56582;44.624;20.378;2024-02-28T08:54:26;13.84;70.11
69393;SHT31;56582;44.624;20.378;2024-02-28T08:56:56;13.94;71.23
69393;SHT31;56582;44.624;20.378;2024-02-28T08:59:23;13.98;71.03
69393;SHT31;56582;44.624;20.378;2024-02-28T09:01:49;14.01;70.99
69393;SHT31;56582;44.624;20.378;2024-02-28T09:04:15;14.11;68.98
69393;SHT31;56582;44.624;20.378;2024-02-28T09:06:40;14.18;70.14
69393;SHT31;56582;44.624;20.378;2024-02-28T09:09:06;14.29;68.59
69393;SHT31;56582;44.624;20.378;2024-02-28T09:11:32;14.42;69.67
69393;SHT31;56582;44.624;20.378;2024-02-28T09:13:58;14.49;69.48
69393;SHT31;56582;44.624;20.378;2024-02-28T09:16:24;14.50;67.80
69393;SHT31;56582;44.624;20.378;2024-02-28T09:18:50;14.59;69.03
69393;SHT31;56582;44.624;20.378;2024-02-28T09:21:15;14.73;67.78
69393;SHT31;56582;44.624;20.378;2024-02-28T09:23:41;14.81;68.02
69393;SHT31;56582;44.624;20.378;2024-02-28T09:26:06;14.88;67.97
69393;SHT31;56582;44.624;20.378;2024-02-28T09:28:33;15.04;67.47
69393;SHT31;56582;44.624;20.378;2024-02-28T09:30:59;15.03;67.71
69393;SHT31;56582;44.624;20.378;2024-02-28T09:33:24;15.14;66.84
69393;SHT31;56582;44.624;20.378;2024-02-28T09:35:50;15.12;67.68
69393;SHT31;56582;44.624;20.378;2024-02-28T09:38:15;15.17;66.80
69393;SHT31;56582;44.624;20.378;2024-02-28T09:40:41;15.35;67.47
69393;SHT31;56582;44.624;20.378;2024-02-28T09:43:14;15.45;67.47
69393;SHT31;56582;44.624;20.378;2024-02-28T09:45:40;15.46;66.52
69393;SHT31;56582;44.624;20.378;2024-02-28T09:48:07;15.49;66.33
69393;SHT31;56582;44.624;20.378;2024-02-28T09:50:32;15.54;65.13
69393;SHT31;56582;44.624;20.378;2024-02-28T09:52:58;15.62;65.64
69393;SHT31;56582;44.624;20.378;2024-02-28T09:55:24;15.67;65.81
69393;SHT31;56582;44.624;20.378;2024-02-28T09:57:52;15.81;67.93
69393;SHT31;56582;44.624;20.378;2024-02-28T10:00:19;15.87;65.26
69393;SHT31;56582;44.624;20.378;2024-02-28T10:02:47;16.02;65.03
69393;SHT31;56582;44.624;20.378;2024-02-28T10:05:17;16.02;65.60
69393;SHT31;56582;44.624;20.378;2024-02-28T10:07:45;16.13;64.09
69393;SHT31;56582;44.624;20.378;2024-02-28T10:10:11;16.33;64.80
69393;SHT31;56582;44.624;20.378;2024-02-28T10:12:40;16.34;63.88
69393;SHT31;56582;44.624;20.378;2024-02-28T10:15:07;16.48;62.83
69393;SHT31;56582;44.624;20.378;2024-02-28T10:17:32;16.51;65.01
69393;SHT31;56582;44.624;20.378;2024-02-28T10:19:58;16.60;63.83
69393;SHT31;56582;44.624;20.378;2024-02-28T10:22:25;16.75;63.93
69393;SHT31;56582;44.624;20.378;2024-02-28T10:24:57;16.83;63.93
69393;SHT31;56582;44.624;20.378;2024-02-28T10:27:23;16.92;63.19
69393;SHT31;56582;44.624;20.378;2024-02-28T10:29:48;16.86;63.00
69393;SHT31;56582;44.624;20.378;2024-02-28T10:32:14;17.12;62.65
69393;SHT31;56582;44.624;20.378;2024-02-28T10:34:40;17.36;63.81
69393;SHT31;56582;44.624;20.378;2024-02-28T10:37:06;17.57;63.69
69393;SHT31;56582;44.624;20.378;2024-02-28T10:39:32;17.81;60.89
69393;SHT31;56582;44.624;20.378;2024-02-28T10:42:00;17.92;60.07
69393;SHT31;56582;44.624;20.378;2024-02-28T10:44:27;17.98;61.21
69393;SHT31;56582;44.624;20.378;2024-02-28T10:46:59;17.99;62.01
69393;SHT31;56582;44.624;20.378;2024-02-28T10:49:25;17.89;61.22
69393;SHT31;56582;44.624;20.378;2024-02-28T10:52:00;17.95;61.25
69393;SHT31;56582;44.624;20.378;2024-02-28T10:54:29;18.05;60.43
69393;SHT31;56582;44.624;20.378;2024-02-28T10:56:56;17.89;60.93
69393;SHT31;56582;44.624;20.378;2024-02-28T10:59:25;17.85;60.44
69393;SHT31;56582;44.624;20.378;2024-02-28T11:01:50;17.94;59.78
69393;SHT31;56582;44.624;20.378;2024-02-28T11:04:17;17.79;60.39
69393;SHT31;56582;44.624;20.378;2024-02-28T11:06:55;17.74;61.08
69393;SHT31;56582;44.624;20.378;2024-02-28T11:09:22;17.75;61.35
69393;SHT31;56582;44.624;20.378;2024-02-28T11:11:57;17.87;60.89
69393;SHT31;56582;44.624;20.378;2024-02-28T11:14:23;18.04;61.60
69393;SHT31;56582;44.624;20.378;2024-02-28T11:17:05;18.10;59.46
69393;SHT31;56582;44.624;20.378;2024-02-28T11:19:32;18.09;59.13
69393;SHT31;56582;44.624;20.378;2024-02-28T11:21:59;18.05;59.62
69393;SHT31;56582;44.624;20.378;2024-02-28T11:24:29;18.04;60.65
69393;SHT31;56582;44.624;20.378;2024-02-28T11:26:56;18.05;59.69
69393;SHT31;56582;44.624;20.378;2024-02-28T11:29:25;18.01;59.82
69393;SHT31;56582;44.624;20.378;2024-02-28T11:31:52;17.95;60.28
69393;SHT31;56582;44.624;20.378;2024-02-28T11:34:19;18.10;61.89
69393;SHT31;56582;44.624;20.378;2024-02-28T11:36:50;18.24;59.76
69393;SHT31;56582;44.624;20.378;2024-02-28T11:39:16;18.12;59.76
69393;SHT31;56582;44.624;20.378;2024-02-28T11:41:43;18.15;58.50
69393;SHT31;56582;44.624;20.378;2024-02-28T11:44:12;18.09;58.59
69393;SHT31;56582;44.624;20.378;2024-02-28T11:46:37;18.25;56.71
69393;SHT31;56582;44.624;20.378;2024-02-28T11:49:03;18.26;57.63
69393;SHT31;56582;44.624;20.378;2024-02-28T11:51:30;18.39;56.77
69393;SHT31;56582;44.624;20.378;2024-02-28T11:54:00;18.49;57.10
69393;SHT31;56582;44.624;20.378;2024-02-28T11:56:26;18.55;59.30
69393;SHT31;56582;44.624;20.378;2024-02-28T11:58:52;18.56;57.62
69393;SHT31;56582;44.624;20.378;2024-02-28T12:01:19;18.57;57.99
69393;SHT31;56582;44.624;20.378;2024-02-28T12:03:45;18.57;57.09
69393;SHT31;56582;44.624;20.378;2024-02-28T12:06:11;18.59;57.80
69393;SHT31;56582;44.624;20.378;2024-02-28T12:08:37;18.47;57.58
69393;SHT31;56582;44.624;20.378;2024-02-28T12:11:06;18.47;58.56
69393;SHT31;56582;44.624;20.378;2024-02-28T12:13:33;18.32;58.47
69393;SHT31;56582;44.624;20.378;2024-02-28T12:15:58;18.36;57.46
69393;SHT31;56582;44.624;20.378;2024-02-28T12:18:26;18.40;58.44
69393;SHT31;56582;44.624;20.378;2024-02-28T12:20:52;18.46;59.63
69393;SHT31;56582;44.624;20.378;2024-02-28T12:23:18;18.53;58.71
69393;SHT31;56582;44.624;20.378;2024-02-28T12:25:43;18.56;59.36
69393;SHT31;56582;44.624;20.378;2024-02-28T12:28:09;18.73;60.84
69393;SHT31;56582;44.624;20.378;2024-02-28T12:30:42;18.76;58.37
69393;SHT31;56582;44.624;20.378;2024-02-28T12:33:08;18.78;57.47
69393;SHT31;56582;44.624;20.378;2024-02-28T12:35:34;18.95;57.16
69393;SHT31;56582;44.624;20.378;2024-02-28T12:37:59;19.11;56.61
69393;SHT31;56582;44.624;20.378;2024-02-28T12:40:25;19.15;56.95
69393;SHT31;56582;44.624;20.378;2024-02-28T12:42:50;19.05;57.93
69393;SHT31;56582;44.624;20.378;2024-02-28T12:45:16;19.07;57.73
69393;SHT31;56582;44.624;20.378;2024-02-28T12:47:41;18.97;58.12
69393;SHT31;56582;44.624;20.378;2024-02-28T12:50:07;18.97;58.79
69393;SHT31;56582;44.624;20.378;2024-02-28T12:52:34;18.83;57.95
69393;SHT31;56582;44.624;20.378;2024-02-28T12:55:00;19.01;58.21
69393;SHT31;56582;44.624;20.378;2024-02-28T12:57:26;18.95;57.38
69393;SHT31;56582;44.624;20.378;2024-02-28T12:59:51;18.63;58.71
69393;SHT31;56582;44.624;20.378;2024-02-28T13:02:17;18.47;59.83
69393;SHT31;56582;44.624;20.378;2024-02-28T13:04:45;18.43;59.76
69393;SHT31;56582;44.624;20.378;2024-02-28T13:07:10;18.45;59.73
69393;SHT31;56582;44.624;20.378;2024-02-28T13:09:37;18.46;59.24
69393;SHT31;56582;44.624;20.378;2024-02-28T13:12:03;18.43;60.16
69393;SHT31;56582;44.624;20.378;2024-02-28T13:14:29;18.55;58.77
69393;SHT31;56582;44.624;20.378;2024-02-28T13:16:55;18.68;59.13
69393;SHT31;56582;44.624;20.378;2024-02-28T13:19:20;18.67;58.03
69393;SHT31;56582;44.624;20.378;2024-02-28T13:21:46;18.50;58.20
69393;SHT31;56582;44.624;20.378;2024-02-28T13:24:12;18.49;58.84
69393;SHT31;56582;44.624;20.378;2024-02-28T13:26:40;18.57;59.70
69393;SHT31;56582;44.624;20.378;2024-02-28T13:29:06;18.67;58.42
69393;SHT31;56582;44.624;20.378;2024-02-28T13:31:33;18.60;59.25
69393;SHT31;56582;44.624;20.378;2024-02-28T13:33:58;18.67;57.41
69393;SHT31;56582;44.624;20.378;2024-02-28T13:36:24;18.52;57.79
69393;SHT31;56582;44.624;20.378;2024-02-28T13:38:50;18.42;57.95
69393;SHT31;56582;44.624;20.378;2024-02-28T13:41:15;18.37;57.89
69393;SHT31;56582;44.624;20.378;2024-02-28T13:43:41;18.29;58.77
69393;SHT31;56582;44.624;20.378;2024-02-28T13:46:07;18.21;58.74
69393;SHT31;56582;44.624;20.378;2024-02-28T13:48:32;18.19;59.41
69393;SHT31;56582;44.624;20.378;2024-02-28T13:50:59;18.21;57.13
69393;SHT31;56582;44.624;20.378;2024-02-28T13:53:24;18.24;58.07
69393;SHT31;56582;44.624;20.378;2024-02-28T13:55:50;18.29;59.23
69393;SHT31;56582;44.624;20.378;2024-02-28T13:58:16;18.09;59.94
69393;SHT31;56582;44.624;20.378;2024-02-28T14:00:45;17.98;60.26
69393;SHT31;56582;44.624;20.378;2024-02-28T14:03:14;17.99;59.74
69393;SHT31;56582;44.624;20.378;2024-02-28T14:05:40;17.98;60.50
69393;SHT31;56582;44.624;20.378;2024-02-28T14:08:06;17.95;59.92
69393;SHT31;56582;44.624;20.378;2024-02-28T14:10:34;17.92;60.72
69393;SHT31;56582;44.624;20.378;2024-02-28T14:13:00;17.99;60.45
69393;SHT31;56582;44.624;20.378;2024-02-28T14:15:26;18.10;61.11
69393;SHT31;56582;44.624;20.378;2024-02-28T14:17:52;18.15;60.70
69393;SHT31;56582;44.624;20.378;2024-02-28T14:20:18;18.13;61.06
69393;SHT31;56582;44.624;20.378;2024-02-28T14:22:44;18.12;59.86
69393;SHT31;56582;44.624;20.378;2024-02-28T14:25:14;18.06;58.42
69393;SHT31;56582;44.624;20.378;2024-02-28T14:27:42;17.92;60.65
69393;SHT31;56582;44.624;20.378;2024-02-28T14:30:11;17.99;59.73
69393;SHT31;56582;44.624;20.378;2024-02-28T14:32:38;18.04;60.68
69393;SHT31;56582;44.624;20.378;2024-02-28T14:35:05;18.04;59.81
69393;SHT31;56582;44.624;20.378;2024-02-28T14:37:32;18.10;59.73
69393;SHT31;56582;44.624;20.378;2024-02-28T14:39:59;18.19;60.33
69393;SHT31;56582;44.624;20.378;2024-02-28T14:42:26;18.28;60.96
69393;SHT31;56582;44.624;20.378;2024-02-28T14:44:52;18.13;58.73
69393;SHT31;56582;44.624;20.378;2024-02-28T14:47:19;18.13;59.45
69393;SHT31;56582;44.624;20.378;2024-02-28T14:49:45;17.94;59.98
69393;SHT31;56582;44.624;20.378;2024-02-28T14:52:10;17.87;60.55
69393;SHT31;56582;44.624;20.378;2024-02-28T14:54:37;17.73;59.89
69393;SHT31;56582;44.624;20.378;2024-02-28T14:57:04;17.79;59.82
69393;SHT31;56582;44.624;20.378;2024-02-28T14:59:29;17.70;61.00
69393;SHT31;56582;44.624;20.378;2024-02-28T15:01:55;17.51;60.86
69393;SHT31;56582;44.624;20.378;2024-02-28T15:04:21;17.50;60.97
69393;SHT31;56582;44.624;20.378;2024-02-28T15:06:46;17.46;61.45
69393;SHT31;56582;44.624;20.378;2024-02-28T15:09:12;17.50;61.11